sensor_id;sensor_type;location;lat;lon;timestamp;temperature;humidity
42135;DHT22;28312;43.460;11.810;2022-08-18T00:00:49;24.40;60.80
42135;DHT22;28312;43.460;11.810;2022-08-18T00:04:54;24.20;60.90
42135;DHT22;28312;43.460;11.810;2022-08-18T00:09:05;24.20;61.00
42135;DHT22;28312;43.460;11.810;2022-08-18T00:13:09;24.20;61.20
42135;DHT22;28312;43.460;11.810;2022-08-18T00:17:13;24.10;61.30
42135;DHT22;28312;43.460;11.810;2022-08-18T00:21:17;23.80;61.70
42135;DHT22;28312;43.460;11.810;2022-08-18T00:25:21;23.80;61.80
42135;DHT22;28312;43.460;11.810;2022-08-18T00:29:25;23.80;61.90
42135;DHT22;28312;43.460;11.810;2022-08-18T00:33:28;23.70;62.00
42135;DHT22;28312;43.460;11.810;2022-08-18T00:37:32;23.70;62.20
42135;DHT22;28312;43.460;11.810;2022-08-18T00:41:36;23.60;62.30
42135;DHT22;28312;43.460;11.810;2022-08-18T00:45:41;23.60;62.40
42135;DHT22;28312;43.460;11.810;2022-08-18T00:49:45;23.60;62.60
42135;DHT22;28312;43.460;11.810;2022-08-18T00:54:09;23.50;62.20
42135;DHT22;28312;43.460;11.810;2022-08-18T00:58:18;23.40;62.60
42135;DHT22;28312;43.460;11.810;2022-08-18T01:02:29;23.40;62.90
42135;DHT22;28312;43.460;11.810;2022-08-18T01:06:40;23.40;63.00
42135;DHT22;28312;43.460;11.810;2022-08-18T01:10:49;23.30;63.30
42135;DHT22;28312;43.460;11.810;2022-08-18T01:14:53;23.20;63.40
42135;DHT22;28312;43.460;11.810;2022-08-18T01:18:58;23.10;63.60
42135;DHT22;28312;43.460;11.810;2022-08-18T01:23:21;23.10;63.70
42135;DHT22;28312;43.460;11.810;2022-08-18T01:27:25;23.10;63.70
42135;DHT22;28312;43.460;11.810;2022-08-18T01:35:42;23.10;63.80
42135;DHT22;28312;43.460;11.810;2022-08-18T01:39:50;23.00;64.10
42135;DHT22;28312;43.460;11.810;2022-08-18T01:44:14;23.00;64.10
42135;DHT22;28312;43.460;11.810;2022-08-18T01:48:17;23.10;64.40
42135;DHT22;28312;43.460;11.810;2022-08-18T01:52:21;23.10;64.60
42135;DHT22;28312;43.460;11.810;2022-08-18T01:56:25;23.10;64.70
42135;DHT22;28312;43.460;11.810;2022-08-18T02:00:29;23.20;64.90
42135;DHT22;28312;43.460;11.810;2022-08-18T02:04:37;23.20;64.90
42135;DHT22;28312;43.460;11.810;2022-08-18T02:08:41;23.20;64.80
42135;DHT22;28312;43.460;11.810;2022-08-18T02:12:48;23.10;64.90
42135;DHT22;28312;43.460;11.810;2022-08-18T02:16:51;23.10;64.90
42135;DHT22;28312;43.460;11.810;2022-08-18T02:21:07;23.10;65.10
42135;DHT22;28312;43.460;11.810;2022-08-18T02:25:13;23.00;65.30
42135;DHT22;28312;43.460;11.810;2022-08-18T02:29:17;23.00;65.20
42135;DHT22;28312;43.460;11.810;2022-08-18T02:33:22;23.00;65.20
42135;DHT22;28312;43.460;11.810;2022-08-18T02:37:26;22.90;65.30
42135;DHT22;28312;43.460;11.810;2022-08-18T02:41:30;22.90;65.50
42135;DHT22;28312;43.460;11.810;2022-08-18T02:45:38;22.90;65.50
42135;DHT22;28312;43.460;11.810;2022-08-18T02:49:42;22.80;65.70
42135;DHT22;28312;43.460;11.810;2022-08-18T02:53:46;22.80;65.60
42135;DHT22;28312;43.460;11.810;2022-08-18T02:57:50;22.80;65.90
42135;DHT22;28312;43.460;11.810;2022-08-18T03:01:55;22.80;66.00
42135;DHT22;28312;43.460;11.810;2022-08-18T03:05:59;22.80;66.20
42135;DHT22;28312;43.460;11.810;2022-08-18T03:10:04;22.90;66.10
42135;DHT22;28312;43.460;11.810;2022-08-18T03:14:28;22.90;66.10
42135;DHT22;28312;43.460;11.810;2022-08-18T03:18:32;22.90;66.20
42135;DHT22;28312;43.460;11.810;2022-08-18T03:22:36;23.00;66.20
42135;DHT22;28312;43.460;11.810;2022-08-18T03:26:43;23.10;66.30
42135;DHT22;28312;43.460;11.810;2022-08-18T03:30:47;23.10;66.30
42135;DHT22;28312;43.460;11.810;2022-08-18T03:34:51;23.10;66.30
42135;DHT22;28312;43.460;11.810;2022-08-18T03:38:55;23.10;66.30
42135;DHT22;28312;43.460;11.810;2022-08-18T03:43:02;23.20;66.30
42135;DHT22;28312;43.460;11.810;2022-08-18T03:47:28;23.20;66.30
42135;DHT22;28312;43.460;11.810;2022-08-18T03:51:32;23.20;66.10
42135;DHT22;28312;43.460;11.810;2022-08-18T03:55:39;23.20;66.10
42135;DHT22;28312;43.460;11.810;2022-08-18T03:59:43;23.20;66.20
42135;DHT22;28312;43.460;11.810;2022-08-18T04:03:50;23.20;66.20
42135;DHT22;28312;43.460;11.810;2022-08-18T04:07:55;23.10;66.40
42135;DHT22;28312;43.460;11.810;2022-08-18T04:12:04;23.20;66.40
42135;DHT22;28312;43.460;11.810;2022-08-18T04:16:18;23.10;66.60
42135;DHT22;28312;43.460;11.810;2022-08-18T04:20:23;23.20;66.70
42135;DHT22;28312;43.460;11.810;2022-08-18T04:24:29;23.20;66.70
42135;DHT22;28312;43.460;11.810;2022-08-18T04:28:35;23.10;66.70
42135;DHT22;28312;43.460;11.810;2022-08-18T04:32:39;23.10;66.80
42135;DHT22;28312;43.460;11.810;2022-08-18T04:36:42;23.00;66.90
42135;DHT22;28312;43.460;11.810;2022-08-18T04:40:52;23.00;66.80
42135;DHT22;28312;43.460;11.810;2022-08-18T04:44:56;22.90;66.90
42135;DHT22;28312;43.460;11.810;2022-08-18T04:49:00;22.80;67.10
42135;DHT22;28312;43.460;11.810;2022-08-18T04:53:04;22.80;67.30
42135;DHT22;28312;43.460;11.810;2022-08-18T04:57:28;22.80;67.40
42135;DHT22;28312;43.460;11.810;2022-08-18T05:01:44;22.90;67.50
42135;DHT22;28312;43.460;11.810;2022-08-18T05:05:48;22.90;67.50
42135;DHT22;28312;43.460;11.810;2022-08-18T05:09:52;23.00;67.50
42135;DHT22;28312;43.460;11.810;2022-08-18T05:13:56;23.00;67.40
42135;DHT22;28312;43.460;11.810;2022-08-18T05:18:00;23.10;67.50
42135;DHT22;28312;43.460;11.810;2022-08-18T05:22:04;23.10;67.80
42135;DHT22;28312;43.460;11.810;2022-08-18T05:26:10;23.10;67.90
42135;DHT22;28312;43.460;11.810;2022-08-18T05:30:15;23.20;67.40
42135;DHT22;28312;43.460;11.810;2022-08-18T05:34:20;23.40;67.70
42135;DHT22;28312;43.460;11.810;2022-08-18T05:42:45;23.70;67.70
42135;DHT22;28312;43.460;11.810;2022-08-18T05:47:02;23.80;67.70
42135;DHT22;28312;43.460;11.810;2022-08-18T05:51:21;24.00;67.70
42135;DHT22;28312;43.460;11.810;2022-08-18T05:55:43;24.10;67.70
42135;DHT22;28312;43.460;11.810;2022-08-18T06:00:07;24.20;67.50
42135;DHT22;28312;43.460;11.810;2022-08-18T06:04:49;24.30;67.50
42135;DHT22;28312;43.460;11.810;2022-08-18T06:09:13;24.40;67.30
42135;DHT22;28312;43.460;11.810;2022-08-18T06:13:19;24.50;67.40
42135;DHT22;28312;43.460;11.810;2022-08-18T06:17:41;24.60;67.40
42135;DHT22;28312;43.460;11.810;2022-08-18T06:31:29;25.00;67.00
42135;DHT22;28312;43.460;11.810;2022-08-18T06:39:45;25.20;67.00
42135;DHT22;28312;43.460;11.810;2022-08-18T06:43:58;25.40;67.00
42135;DHT22;28312;43.460;11.810;2022-08-18T06:48:38;25.60;66.90
42135;DHT22;28312;43.460;11.810;2022-08-18T06:52:54;25.90;66.80
42135;DHT22;28312;43.460;11.810;2022-08-18T06:56:58;26.10;66.60
42135;DHT22;28312;43.460;11.810;2022-08-18T07:01:05;26.40;66.40
42135;DHT22;28312;43.460;11.810;2022-08-18T07:05:25;26.70;66.40
42135;DHT22;28312;43.460;11.810;2022-08-18T07:09:32;27.10;66.20
42135;DHT22;28312;43.460;11.810;2022-08-18T07:13:39;27.40;65.80
42135;DHT22;28312;43.460;11.810;2022-08-18T07:17:47;27.60;65.40
42135;DHT22;28312;43.460;11.810;2022-08-18T07:26:12;28.10;65.30
42135;DHT22;28312;43.460;11.810;2022-08-18T07:34:46;28.60;64.90
42135;DHT22;28312;43.460;11.810;2022-08-18T07:39:05;28.90;64.70
42135;DHT22;28312;43.460;11.810;2022-08-18T07:48:13;29.30;64.00
42135;DHT22;28312;43.460;11.810;2022-08-18T07:52:46;29.40;63.80
42135;DHT22;28312;43.460;11.810;2022-08-18T08:01:20;29.60;63.80
42135;DHT22;28312;43.460;11.810;2022-08-18T08:10:32;29.90;63.50
42135;DHT22;28312;43.460;11.810;2022-08-18T08:14:43;30.20;63.30
42135;DHT22;28312;43.460;11.810;2022-08-18T08:19:41;30.30;63.20
42135;DHT22;28312;43.460;11.810;2022-08-18T08:24:15;30.50;62.90
42135;DHT22;28312;43.460;11.810;2022-08-18T08:37:16;30.50;62.40
42135;DHT22;28312;43.460;11.810;2022-08-18T08:41:31;30.40;62.20
42135;DHT22;28312;43.460;11.810;2022-08-18T08:45:44;30.20;62.00
42135;DHT22;28312;43.460;11.810;2022-08-18T08:49:56;30.00;61.90
42135;DHT22;28312;43.460;11.810;2022-08-18T08:54:16;29.70;62.00
42135;DHT22;28312;43.460;11.810;2022-08-18T08:58:51;29.60;62.00
42135;DHT22;28312;43.460;11.810;2022-08-18T09:03:09;29.30;62.20
42135;DHT22;28312;43.460;11.810;2022-08-18T09:16:42;28.70;62.50
42135;DHT22;28312;43.460;11.810;2022-08-18T09:20:58;28.60;62.80
42135;DHT22;28312;43.460;11.810;2022-08-18T09:25:28;28.30;59.30
42135;DHT22;28312;43.460;11.810;2022-08-18T09:29:54;27.40;57.20
42135;DHT22;28312;43.460;11.810;2022-08-18T09:34:10;25.60;59.60
42135;DHT22;28312;43.460;11.810;2022-08-18T09:38:22;24.10;63.40
42135;DHT22;28312;43.460;11.810;2022-08-18T09:43:05;23.10;65.90
42135;DHT22;28312;43.460;11.810;2022-08-18T09:51:37;21.60;69.90
42135;DHT22;28312;43.460;11.810;2022-08-18T09:55:53;21.20;71.80
42135;DHT22;28312;43.460;11.810;2022-08-18T10:09:03;21.00;74.70
42135;DHT22;28312;43.460;11.810;2022-08-18T10:22:04;20.90;75.30
42135;DHT22;28312;43.460;11.810;2022-08-18T10:34:58;21.00;75.60
42135;DHT22;28312;43.460;11.810;2022-08-18T10:39:08;21.10;75.80
42135;DHT22;28312;43.460;11.810;2022-08-18T10:47:36;21.20;75.80
42135;DHT22;28312;43.460;11.810;2022-08-18T10:51:49;21.20;75.90
42135;DHT22;28312;43.460;11.810;2022-08-18T11:00:19;21.10;76.00
42135;DHT22;28312;43.460;11.810;2022-08-18T11:04:40;21.20;75.90
42135;DHT22;28312;43.460;11.810;2022-08-18T11:08:50;21.30;75.90
42135;DHT22;28312;43.460;11.810;2022-08-18T11:22:20;21.50;75.60
42135;DHT22;28312;43.460;11.810;2022-08-18T11:26:42;21.50;75.70
42135;DHT22;28312;43.460;11.810;2022-08-18T11:30:54;21.50;75.90
42135;DHT22;28312;43.460;11.810;2022-08-18T11:35:20;21.50;75.90
42135;DHT22;28312;43.460;11.810;2022-08-18T11:39:29;21.50;76.00
42135;DHT22;28312;43.460;11.810;2022-08-18T11:43:41;21.60;76.10
42135;DHT22;28312;43.460;11.810;2022-08-18T11:48:14;21.70;76.20
42135;DHT22;28312;43.460;11.810;2022-08-18T11:52:27;21.70;76.30
42135;DHT22;28312;43.460;11.810;2022-08-18T11:56:35;21.80;76.30
42135;DHT22;28312;43.460;11.810;2022-08-18T12:00:42;21.90;76.40
42135;DHT22;28312;43.460;11.810;2022-08-18T12:04:59;22.10;76.80
42135;DHT22;28312;43.460;11.810;2022-08-18T12:13:45;22.90;77.40
42135;DHT22;28312;43.460;11.810;2022-08-18T12:17:52;23.60;77.20
42135;DHT22;28312;43.460;11.810;2022-08-18T12:21:58;24.10;77.10
42135;DHT22;28312;43.460;11.810;2022-08-18T12:26:03;24.60;76.80
42135;DHT22;28312;43.460;11.810;2022-08-18T12:30:27;25.00;76.70
42135;DHT22;28312;43.460;11.810;2022-08-18T12:34:31;25.50;76.30
42135;DHT22;28312;43.460;11.810;2022-08-18T12:38:35;25.60;75.50
42135;DHT22;28312;43.460;11.810;2022-08-18T12:42:44;25.60;75.20
42135;DHT22;28312;43.460;11.810;2022-08-18T12:46:52;25.60;75.00
42135;DHT22;28312;43.460;11.810;2022-08-18T12:50:57;25.60;75.30
42135;DHT22;28312;43.460;11.810;2022-08-18T12:55:03;25.80;75.50
42135;DHT22;28312;43.460;11.810;2022-08-18T12:59:08;26.00;75.20
42135;DHT22;28312;43.460;11.810;2022-08-18T13:03:15;26.20;75.10
42135;DHT22;28312;43.460;11.810;2022-08-18T13:07:20;26.40;75.20
42135;DHT22;28312;43.460;11.810;2022-08-18T13:11:24;26.80;75.20
42135;DHT22;28312;43.460;11.810;2022-08-18T13:15:29;27.20;74.90
42135;DHT22;28312;43.460;11.810;2022-08-18T13:19:33;27.40;74.10
42135;DHT22;28312;43.460;11.810;2022-08-18T13:23:38;27.60;74.40
42135;DHT22;28312;43.460;11.810;2022-08-18T13:27:42;27.90;74.50
42135;DHT22;28312;43.460;11.810;2022-08-18T13:31:55;28.30;74.00
42135;DHT22;28312;43.460;11.810;2022-08-18T13:36:00;28.60;73.80
42135;DHT22;28312;43.460;11.810;2022-08-18T13:40:05;28.70;73.80
42135;DHT22;28312;43.460;11.810;2022-08-18T13:44:12;28.90;73.80
42135;DHT22;28312;43.460;11.810;2022-08-18T13:48:23;29.10;72.90
42135;DHT22;28312;43.460;11.810;2022-08-18T13:52:28;29.20;72.70
42135;DHT22;28312;43.460;11.810;2022-08-18T13:56:41;29.50;72.00
42135;DHT22;28312;43.460;11.810;2022-08-18T14:01:02;29.70;71.70
42135;DHT22;28312;43.460;11.810;2022-08-18T14:05:26;29.90;71.50
42135;DHT22;28312;43.460;11.810;2022-08-18T14:09:51;30.10;71.20
42135;DHT22;28312;43.460;11.810;2022-08-18T14:13:55;30.40;71.10
42135;DHT22;28312;43.460;11.810;2022-08-18T14:17:59;30.60;70.70
42135;DHT22;28312;43.460;11.810;2022-08-18T14:22:08;30.70;70.20
42135;DHT22;28312;43.460;11.810;2022-08-18T14:26:30;30.80;69.30
42135;DHT22;28312;43.460;11.810;2022-08-18T14:30:53;30.90;69.00
42135;DHT22;28312;43.460;11.810;2022-08-18T14:34:58;31.00;68.60
42135;DHT22;28312;43.460;11.810;2022-08-18T14:39:22;31.10;68.10
42135;DHT22;28312;43.460;11.810;2022-08-18T14:43:26;31.20;67.70
42135;DHT22;28312;43.460;11.810;2022-08-18T14:47:50;31.40;67.30
42135;DHT22;28312;43.460;11.810;2022-08-18T14:51:58;31.60;66.80
42135;DHT22;28312;43.460;11.810;2022-08-18T14:56:03;31.60;66.10
42135;DHT22;28312;43.460;11.810;2022-08-18T15:00:08;31.60;65.60
42135;DHT22;28312;43.460;11.810;2022-08-18T15:04:17;31.60;65.60
42135;DHT22;28312;43.460;11.810;2022-08-18T15:08:21;31.60;65.50
42135;DHT22;28312;43.460;11.810;2022-08-18T15:12:28;31.60;65.10
42135;DHT22;28312;43.460;11.810;2022-08-18T15:16:32;31.60;64.50
42135;DHT22;28312;43.460;11.810;2022-08-18T15:20:41;31.70;64.20
42135;DHT22;28312;43.460;11.810;2022-08-18T15:25:05;31.80;64.00
42135;DHT22;28312;43.460;11.810;2022-08-18T15:29:30;31.80;63.60
42135;DHT22;28312;43.460;11.810;2022-08-18T15:33:33;31.90;63.40
42135;DHT22;28312;43.460;11.810;2022-08-18T15:37:38;31.90;63.00
42135;DHT22;28312;43.460;11.810;2022-08-18T15:41:45;32.00;63.00
42135;DHT22;28312;43.460;11.810;2022-08-18T15:45:51;32.00;62.40
42135;DHT22;28312;43.460;11.810;2022-08-18T15:50:00;31.80;62.30
42135;DHT22;28312;43.460;11.810;2022-08-18T15:54:24;31.70;62.00
42135;DHT22;28312;43.460;11.810;2022-08-18T15:58:30;31.60;62.00
42135;DHT22;28312;43.460;11.810;2022-08-18T16:02:34;31.40;62.10
42135;DHT22;28312;43.460;11.810;2022-08-18T16:06:40;31.30;62.00
42135;DHT22;28312;43.460;11.810;2022-08-18T16:10:47;31.10;61.90
42135;DHT22;28312;43.460;11.810;2022-08-18T16:14:51;30.90;61.90
42135;DHT22;28312;43.460;11.810;2022-08-18T16:18:55;30.80;62.10
42135;DHT22;28312;43.460;11.810;2022-08-18T16:23:00;30.60;62.30
42135;DHT22;28312;43.460;11.810;2022-08-18T16:27:04;30.40;62.50
42135;DHT22;28312;43.460;11.810;2022-08-18T16:31:09;30.30;62.60
42135;DHT22;28312;43.460;11.810;2022-08-18T16:35:18;30.20;62.60
42135;DHT22;28312;43.460;11.810;2022-08-18T16:39:22;30.00;62.60
42135;DHT22;28312;43.460;11.810;2022-08-18T16:43:26;29.80;62.90
42135;DHT22;28312;43.460;11.810;2022-08-18T16:47:31;29.70;63.00
42135;DHT22;28312;43.460;11.810;2022-08-18T16:51:36;29.50;63.10
42135;DHT22;28312;43.460;11.810;2022-08-18T16:55:41;29.10;63.30
42135;DHT22;28312;43.460;11.810;2022-08-18T16:59:46;28.70;63.60
42135;DHT22;28312;43.460;11.810;2022-08-18T17:04:09;28.30;64.20
42135;DHT22;28312;43.460;11.810;2022-08-18T17:08:22;27.90;64.70
42135;DHT22;28312;43.460;11.810;2022-08-18T17:12:27;27.70;65.00
42135;DHT22;28312;43.460;11.810;2022-08-18T17:16:31;27.60;65.20
42135;DHT22;28312;43.460;11.810;2022-08-18T17:20:34;27.50;65.30
42135;DHT22;28312;43.460;11.810;2022-08-18T17:24:39;27.30;65.60
42135;DHT22;28312;43.460;11.810;2022-08-18T17:29:08;27.10;66.00
42135;DHT22;28312;43.460;11.810;2022-08-18T17:33:23;27.00;66.10
42135;DHT22;28312;43.460;11.810;2022-08-18T17:37:29;27.00;66.10
42135;DHT22;28312;43.460;11.810;2022-08-18T17:41:33;26.90;66.00
42135;DHT22;28312;43.460;11.810;2022-08-18T17:46:04;26.90;66.10
42135;DHT22;28312;43.460;11.810;2022-08-18T17:50:33;26.80;66.20
42135;DHT22;28312;43.460;11.810;2022-08-18T17:55:10;26.70;66.30
42135;DHT22;28312;43.460;11.810;2022-08-18T17:59:43;26.60;66.50
42135;DHT22;28312;43.460;11.810;2022-08-18T18:03:56;26.50;66.80
42135;DHT22;28312;43.460;11.810;2022-08-18T18:08:00;26.50;67.00
42135;DHT22;28312;43.460;11.810;2022-08-18T18:12:19;26.40;67.30
42135;DHT22;28312;43.460;11.810;2022-08-18T18:16:32;26.30;67.40
42135;DHT22;28312;43.460;11.810;2022-08-18T18:20:43;26.30;67.60
42135;DHT22;28312;43.460;11.810;2022-08-18T18:24:51;26.10;67.70
42135;DHT22;28312;43.460;11.810;2022-08-18T18:29:15;26.10;68.00
42135;DHT22;28312;43.460;11.810;2022-08-18T18:33:21;26.10;68.00
42135;DHT22;28312;43.460;11.810;2022-08-18T18:37:29;26.10;68.00
42135;DHT22;28312;43.460;11.810;2022-08-18T18:41:36;26.00;68.10
42135;DHT22;28312;43.460;11.810;2022-08-18T18:45:42;26.00;68.30
42135;DHT22;28312;43.460;11.810;2022-08-18T18:55:05;25.80;68.40
42135;DHT22;28312;43.460;11.810;2022-08-18T19:00:04;25.60;68.80
42135;DHT22;28312;43.460;11.810;2022-08-18T19:04:09;25.50;69.00
42135;DHT22;28312;43.460;11.810;2022-08-18T19:08:30;25.50;69.00
42135;DHT22;28312;43.460;11.810;2022-08-18T19:12:53;25.40;69.30
42135;DHT22;28312;43.460;11.810;2022-08-18T19:17:21;25.30;69.30
42135;DHT22;28312;43.460;11.810;2022-08-18T19:21:27;25.30;69.50
42135;DHT22;28312;43.460;11.810;2022-08-18T19:25:55;25.30;69.60
42135;DHT22;28312;43.460;11.810;2022-08-18T19:30:04;25.20;69.70
42135;DHT22;28312;43.460;11.810;2022-08-18T19:34:27;25.20;69.80
42135;DHT22;28312;43.460;11.810;2022-08-18T19:38:49;25.10;69.90
42135;DHT22;28312;43.460;11.810;2022-08-18T19:42:57;25.10;70.20
42135;DHT22;28312;43.460;11.810;2022-08-18T19:47:12;25.10;70.10
42135;DHT22;28312;43.460;11.810;2022-08-18T19:51:33;25.00;70.40
42135;DHT22;28312;43.460;11.810;2022-08-18T19:55:55;25.00;70.40
42135;DHT22;28312;43.460;11.810;2022-08-18T20:00:52;24.80;70.50
42135;DHT22;28312;43.460;11.810;2022-08-18T20:13:59;24.10;70.40
42135;DHT22;28312;43.460;11.810;2022-08-18T20:18:28;23.90;70.60
42135;DHT22;28312;43.460;11.810;2022-08-18T20:22:39;23.80;70.70
42135;DHT22;28312;43.460;11.810;2022-08-18T20:26:48;23.80;70.90
42135;DHT22;28312;43.460;11.810;2022-08-18T20:31:13;23.80;70.90
42135;DHT22;28312;43.460;11.810;2022-08-18T20:35:29;23.80;70.80
42135;DHT22;28312;43.460;11.810;2022-08-18T20:39:42;23.80;70.60
42135;DHT22;28312;43.460;11.810;2022-08-18T20:43:48;23.60;71.00
42135;DHT22;28312;43.460;11.810;2022-08-18T20:48:41;23.60;71.10
42135;DHT22;28312;43.460;11.810;2022-08-18T20:52:55;23.60;71.20
42135;DHT22;28312;43.460;11.810;2022-08-18T20:57:04;23.60;71.20
42135;DHT22;28312;43.460;11.810;2022-08-18T21:01:12;23.50;71.70
42135;DHT22;28312;43.460;11.810;2022-08-18T21:05:32;23.30;73.50
42135;DHT22;28312;43.460;11.810;2022-08-18T21:09:36;23.10;75.20
42135;DHT22;28312;43.460;11.810;2022-08-18T21:17:43;22.30;76.90
42135;DHT22;28312;43.460;11.810;2022-08-18T21:21:54;21.90;77.90
42135;DHT22;28312;43.460;11.810;2022-08-18T21:26:05;21.70;78.70
42135;DHT22;28312;43.460;11.810;2022-08-18T21:30:19;21.40;79.10
42135;DHT22;28312;43.460;11.810;2022-08-18T21:34:31;21.00;79.70
42135;DHT22;28312;43.460;11.810;2022-08-18T21:38:35;20.60;80.50
42135;DHT22;28312;43.460;11.810;2022-08-18T21:42:43;20.30;81.40
42135;DHT22;28312;43.460;11.810;2022-08-18T21:46:49;20.10;82.30
42135;DHT22;28312;43.460;11.810;2022-08-18T21:50:56;20.00;83.00
42135;DHT22;28312;43.460;11.810;2022-08-18T21:55:18;19.90;83.70
42135;DHT22;28312;43.460;11.810;2022-08-18T21:59:22;19.90;84.00
42135;DHT22;28312;43.460;11.810;2022-08-18T22:03:26;19.80;84.30
42135;DHT22;28312;43.460;11.810;2022-08-18T22:07:32;19.80;84.40
42135;DHT22;28312;43.460;11.810;2022-08-18T22:11:37;19.60;84.70
42135;DHT22;28312;43.460;11.810;2022-08-18T22:16:28;19.50;84.90
42135;DHT22;28312;43.460;11.810;2022-08-18T22:24:42;19.20;85.70
42135;DHT22;28312;43.460;11.810;2022-08-18T22:32:52;19.10;86.60
42135;DHT22;28312;43.460;11.810;2022-08-18T22:37:23;19.10;87.20
42135;DHT22;28312;43.460;11.810;2022-08-18T22:41:27;19.10;86.50
42135;DHT22;28312;43.460;11.810;2022-08-18T22:45:32;19.10;86.70
42135;DHT22;28312;43.460;11.810;2022-08-18T22:49:36;19.00;87.00
42135;DHT22;28312;43.460;11.810;2022-08-18T22:53:39;18.90;87.50
42135;DHT22;28312;43.460;11.810;2022-08-18T22:57:43;18.90;87.30
42135;DHT22;28312;43.460;11.810;2022-08-18T23:01:50;18.90;87.80
42135;DHT22;28312;43.460;11.810;2022-08-18T23:05:54;18.90;87.90
42135;DHT22;28312;43.460;11.810;2022-08-18T23:09:58;18.80;88.30
42135;DHT22;28312;43.460;11.810;2022-08-18T23:14:04;18.90;88.60
42135;DHT22;28312;43.460;11.810;2022-08-18T23:18:08;19.00;88.60
42135;DHT22;28312;43.460;11.810;2022-08-18T23:22:12;19.00;88.90
42135;DHT22;28312;43.460;11.810;2022-08-18T23:26:15;19.10;89.10
42135;DHT22;28312;43.460;11.810;2022-08-18T23:30:25;19.20;89.10
42135;DHT22;28312;43.460;11.810;2022-08-18T23:34:33;19.20;89.10
42135;DHT22;28312;43.460;11.810;2022-08-18T23:38:37;19.30;89.20
42135;DHT22;28312;43.460;11.810;2022-08-18T23:42:42;19.40;89.40
42135;DHT22;28312;43.460;11.810;2022-08-18T23:46:47;19.50;89.40
42135;DHT22;28312;43.460;11.810;2022-08-18T23:50:51;19.50;89.50
42135;DHT22;28312;43.460;11.810;2022-08-18T23:54:54;19.50;89.60
42135;DHT22;28312;43.460;11.810;2022-08-18T23:59:00;19.60;89.70
